Time;durP1;ratioP1;P1;durP2;ratioP2;P2;SDS_P1;SDS_P2;PMS_P1;PMS_P2;Temp;Humidity;BMP_temperature;BMP_pressure;BME280_temperature;BME280_humidity;BME280_pressure;Samples;Min_cycle;Max_cycle;Signal;HPM_P1;HPM_P2
2021/12/09 00:00:17;;;;;;;11.48;7.78;;;;;;;;;;5073558;28;20463;-30
2021/12/09 00:02:43;;;;;;;10.13;6.65;;;;;;;;;;5071070;28;20466;-34
2021/12/09 00:05:10;;;;;;;10.95;7.13;;;;;;;;;;5078969;28;20555;-36
2021/12/09 00:07:36;;;;;;;10.82;7.40;;;;;;;;;;5074089;28;20124;-29
2021/12/09 00:10:06;;;;;;;11.45;7.90;;;;;;;;;;5073095;28;20396;-32
2021/12/09 00:12:32;;;;;;;10.93;7.03;;;;;;;;;;5075680;28;20377;-30
2021/12/09 00:14:58;;;;;;;11.20;7.13;;;;;;;;;;5069798;28;20515;-28
2021/12/09 00:17:29;;;;;;;11.52;7.78;;;;;;;;;;5071381;28;20094;-30
2021/12/09 00:19:55;;;;;;;14.68;8.18;;;;;;;;;;5062397;28;20167;-30
2021/12/09 00:22:25;;;;;;;12.50;7.47;;;;;;;;;;5075530;28;20041;-30
2021/12/09 00:24:54;;;;;;;11.82;7.05;;;;;;;;;;5076513;28;20051;-30
2021/12/09 00:27:26;;;;;;;10.55;6.40;;;;;;;;;;5079525;28;20039;-30
2021/12/09 00:29:55;;;;;;;12.35;7.07;;;;;;;;;;5079833;28;20040;-30
2021/12/09 00:32:22;;;;;;;12.30;7.82;;;;;;;;;;5068849;28;20052;-30
2021/12/09 00:34:50;;;;;;;11.50;7.13;;;;;;;;;;5076633;28;20063;-30
2021/12/09 00:37:35;;;;;;;12.65;6.47;;;;;;;;;;5073915;28;20081;-30
2021/12/09 00:40:04;;;;;;;10.30;6.40;;;;;;;;;;5068930;28;20119;-29
2021/12/09 00:42:33;;;;;;;11.00;7.47;;;;;;;;;;5072684;28;20428;-30
2021/12/09 00:45:00;;;;;;;9.25;6.22;;;;;;;;;;5077209;28;20367;-28
2021/12/09 00:47:26;;;;;;;9.45;7.13;;;;;;;;;;5072056;28;20126;-30
2021/12/09 00:49:55;;;;;;;9.90;7.25;;;;;;;;;;5082720;28;20447;-32
2021/12/09 00:52:24;;;;;;;9.82;6.28;;;;;;;;;;5081338;28;20040;-30
2021/12/09 00:54:52;;;;;;;11.27;7.25;;;;;;;;;;5075566;28;20079;-29
2021/12/09 00:57:24;;;;;;;12.57;7.13;;;;;;;;;;5083495;28;20378;-29
2021/12/09 00:59:50;;;;;;;10.82;6.78;;;;;;;;;;5072432;28;20447;-30
2021/12/09 01:02:16;;;;;;;15.27;8.43;;;;;;;;;;5090220;28;20074;-29
2021/12/09 01:04:45;;;;;;;12.82;7.18;;;;;;;;;;5090212;28;20071;-30
2021/12/09 01:07:11;;;;;;;11.80;7.85;;;;;;;;;;5091405;28;20040;-30
2021/12/09 01:09:43;;;;;;;9.95;6.85;;;;;;;;;;5094367;28;20032;-30
2021/12/09 01:12:10;;;;;;;13.68;7.95;;;;;;;;;;5094183;28;20036;-30
2021/12/09 01:14:37;;;;;;;10.15;7.90;;;;;;;;;;5093689;28;20127;-30
2021/12/09 01:17:08;;;;;;;8.80;6.68;;;;;;;;;;5076006;28;20043;-30
2021/12/09 01:19:38;;;;;;;8.82;7.20;;;;;;;;;;5094026;28;20036;-29
2021/12/09 01:22:04;;;;;;;9.68;7.70;;;;;;;;;;5094039;28;20078;-30
2021/12/09 01:24:30;;;;;;;12.40;7.03;;;;;;;;;;5093237;28;20046;-30
2021/12/09 01:26:58;;;;;;;13.77;7.25;;;;;;;;;;5093940;28;20028;-31
2021/12/09 01:29:33;;;;;;;11.20;7.57;;;;;;;;;;5093716;28;20059;-30
2021/12/09 01:32:07;;;;;;;12.00;7.60;;;;;;;;;;5093873;28;20072;-30
2021/12/09 01:34:34;;;;;;;13.90;8.32;;;;;;;;;;5093617;28;20419;-29
2021/12/09 01:37:04;;;;;;;11.55;7.38;;;;;;;;;;5088592;28;20047;-29
2021/12/09 01:39:31;;;;;;;11.18;7.45;;;;;;;;;;5071681;28;20397;-29
2021/12/09 01:41:58;;;;;;;11.60;8.35;;;;;;;;;;5054985;28;20044;-29
2021/12/09 01:44:25;;;;;;;14.77;7.15;;;;;;;;;;5079562;28;20068;-29
2021/12/09 01:46:55;;;;;;;12.90;9.07;;;;;;;;;;5079076;28;20145;-30
2021/12/09 01:49:21;;;;;;;16.25;11.10;;;;;;;;;;5060437;28;20500;-29
2021/12/09 01:51:50;;;;;;;16.83;11.25;;;;;;;;;;5075676;28;20454;-29
2021/12/09 01:54:16;;;;;;;20.95;10.07;;;;;;;;;;5079416;28;20078;-28
2021/12/09 01:56:51;;;;;;;19.67;12.10;;;;;;;;;;5085780;28;20044;-27
2021/12/09 01:59:23;;;;;;;20.75;12.38;;;;;;;;;;5067629;28;20503;-27
2021/12/09 02:01:49;;;;;;;19.65;12.18;;;;;;;;;;5073979;28;20048;-27
2021/12/09 02:04:16;;;;;;;21.83;13.15;;;;;;;;;;5080419;28;20393;-27
2021/12/09 02:06:43;;;;;;;22.85;13.90;;;;;;;;;;5074967;28;20048;-26
2021/12/09 02:09:13;;;;;;;23.42;13.50;;;;;;;;;;5079544;28;20044;-27
2021/12/09 02:11:39;;;;;;;18.45;12.45;;;;;;;;;;5074835;28;20041;-27
2021/12/09 02:14:06;;;;;;;17.67;12.52;;;;;;;;;;5081654;28;20047;-27
2021/12/09 02:16:41;;;;;;;21.80;12.73;;;;;;;;;;5072128;28;20102;-28
2021/12/09 02:19:10;;;;;;;18.48;11.82;;;;;;;;;;5068054;28;20040;-27
2021/12/09 02:21:39;;;;;;;21.63;11.93;;;;;;;;;;5072024;28;20041;-27
2021/12/09 02:24:10;;;;;;;16.55;12.10;;;;;;;;;;5073535;28;20041;-28
2021/12/09 02:26:37;;;;;;;19.10;11.48;;;;;;;;;;5075991;28;20040;-31
2021/12/09 02:29:04;;;;;;;16.73;10.65;;;;;;;;;;5078935;28;20032;-29
2021/12/09 02:31:30;;;;;;;19.60;11.45;;;;;;;;;;5089640;28;20568;-29
2021/12/09 02:34:06;;;;;;;18.35;12.60;;;;;;;;;;5089760;28;20397;-29
2021/12/09 02:36:38;;;;;;;17.23;12.20;;;;;;;;;;5087549;28;20091;-28
2021/12/09 02:39:09;;;;;;;17.50;12.68;;;;;;;;;;5080840;28;20417;-27
2021/12/09 02:41:36;;;;;;;19.65;12.68;;;;;;;;;;5049279;28;20072;-29
2021/12/09 02:44:04;;;;;;;19.45;13.02;;;;;;;;;;5088236;28;20114;-28
2021/12/09 02:46:37;;;;;;;20.33;12.68;;;;;;;;;;5080983;28;20339;-27
2021/12/09 02:49:23;;;;;;;16.58;12.32;;;;;;;;;;5071883;28;20054;-28
2021/12/09 02:51:56;;;;;;;28.13;15.35;;;;;;;;;;5074466;28;20481;-28
2021/12/09 02:54:23;;;;;;;17.42;11.95;;;;;;;;;;5072644;28;20037;-28
2021/12/09 02:56:54;;;;;;;16.42;11.50;;;;;;;;;;5079850;28;20122;-29
2021/12/09 02:59:20;;;;;;;22.95;13.80;;;;;;;;;;5076747;28;20481;-29
2021/12/09 03:01:57;;;;;;;17.77;11.65;;;;;;;;;;5082252;28;20047;-27
2021/12/09 03:04:27;;;;;;;16.98;11.98;;;;;;;;;;5073224;28;20047;-28
2021/12/09 03:06:55;;;;;;;19.90;12.73;;;;;;;;;;5089696;28;20489;-29
2021/12/09 03:09:22;;;;;;;19.65;12.93;;;;;;;;;;5073754;28;20186;-28
2021/12/09 03:11:54;;;;;;;20.05;13.45;;;;;;;;;;5086832;28;20032;-29
2021/12/09 03:14:20;;;;;;;27.17;15.30;;;;;;;;;;5071458;28;20044;-28
2021/12/09 03:16:46;;;;;;;21.85;14.57;;;;;;;;;;5087009;28;20043;-28
2021/12/09 03:19:12;;;;;;;20.90;13.00;;;;;;;;;;5075064;28;20043;-28
2021/12/09 03:21:40;;;;;;;22.45;14.27;;;;;;;;;;5082135;28;20036;-29
2021/12/09 03:24:10;;;;;;;25.05;14.43;;;;;;;;;;5069958;28;20415;-27
2021/12/09 03:26:46;;;;;;;22.13;14.57;;;;;;;;;;5070698;28;20123;-29
2021/12/09 03:29:17;;;;;;;25.42;14.88;;;;;;;;;;5074167;28;20036;-28
2021/12/09 03:31:44;;;;;;;23.33;14.90;;;;;;;;;;5074882;28;20033;-29
2021/12/09 03:34:12;;;;;;;23.65;14.93;;;;;;;;;;5080825;28;20044;-29
2021/12/09 03:36:39;;;;;;;22.00;14.23;;;;;;;;;;5080715;28;20036;-29
2021/12/09 03:39:07;;;;;;;26.65;15.98;;;;;;;;;;5087307;28;20558;-28
2021/12/09 03:41:33;;;;;;;19.63;14.27;;;;;;;;;;5049269;28;20054;-29
2021/12/09 03:43:59;;;;;;;24.88;15.65;;;;;;;;;;5082708;28;20044;-29
2021/12/09 03:46:25;;;;;;;20.65;14.70;;;;;;;;;;5079021;28;22126;-29
2021/12/09 03:48:51;;;;;;;21.67;14.95;;;;;;;;;;5076414;28;20032;-28
2021/12/09 03:51:20;;;;;;;21.48;15.45;;;;;;;;;;5079708;28;20115;-29
2021/12/09 03:53:46;;;;;;;27.17;16.63;;;;;;;;;;5073227;28;20047;-29
2021/12/09 03:56:12;;;;;;;26.20;16.33;;;;;;;;;;5072790;28;20468;-29
2021/12/09 03:58:38;;;;;;;25.05;16.00;;;;;;;;;;5086978;28;20067;-28
2021/12/09 04:01:07;;;;;;;22.10;15.57;;;;;;;;;;5082823;28;20081;-29
2021/12/09 04:03:33;;;;;;;24.15;15.27;;;;;;;;;;5068573;28;20409;-30
2021/12/09 04:06:05;;;;;;;22.75;15.43;;;;;;;;;;5069171;28;20037;-29
2021/12/09 04:08:31;;;;;;;23.20;15.38;;;;;;;;;;5069444;28;20044;-28
2021/12/09 04:10:58;;;;;;;27.05;16.17;;;;;;;;;;5051391;28;20040;-29
2021/12/09 04:13:24;;;;;;;20.85;14.15;;;;;;;;;;5075638;28;20494;-29
2021/12/09 04:15:50;;;;;;;26.23;15.35;;;;;;;;;;5069966;28;20086;-29
2021/12/09 04:18:16;;;;;;;24.02;14.68;;;;;;;;;;5051042;28;20055;-29
2021/12/09 04:20:42;;;;;;;22.63;15.85;;;;;;;;;;5084433;28;20036;-31
2021/12/09 04:23:12;;;;;;;23.42;15.52;;;;;;;;;;5076284;28;20174;-28
2021/12/09 04:25:38;;;;;;;29.60;15.70;;;;;;;;;;5082608;28;20035;-29
2021/12/09 04:28:07;;;;;;;27.95;15.85;;;;;;;;;;5082004;28;20486;-29
2021/12/09 04:30:36;;;;;;;27.50;15.85;;;;;;;;;;5076621;28;20039;-29
2021/12/09 04:33:05;;;;;;;28.92;16.23;;;;;;;;;;5080795;28;20043;-28
2021/12/09 04:35:31;;;;;;;27.50;16.08;;;;;;;;;;5084667;28;20040;-28
2021/12/09 04:38:00;;;;;;;25.98;16.90;;;;;;;;;;5072200;28;20436;-27
2021/12/09 04:40:29;;;;;;;27.45;17.15;;;;;;;;;;5084628;28;20511;-27
2021/12/09 04:42:55;;;;;;;29.60;16.92;;;;;;;;;;5075990;28;20401;-29
2021/12/09 04:45:24;;;;;;;24.60;17.35;;;;;;;;;;5088345;28;20287;-29
2021/12/09 04:47:50;;;;;;;26.40;16.85;;;;;;;;;;5083959;28;20036;-30
2021/12/09 04:50:16;;;;;;;22.38;15.50;;;;;;;;;;5088132;28;20046;-29
2021/12/09 04:52:51;;;;;;;25.98;16.17;;;;;;;;;;5084981;28;20558;-29
2021/12/09 04:55:20;;;;;;;25.40;15.55;;;;;;;;;;5065641;28;20047;-29
2021/12/09 04:57:49;;;;;;;20.27;14.65;;;;;;;;;;5093027;28;20082;-29
2021/12/09 05:00:17;;;;;;;26.05;14.65;;;;;;;;;;5091064;28;20077;-27
2021/12/09 05:05:18;;;;;;;22.90;14.20;;;;;;;;;;5076716;28;20082;-28
2021/12/09 05:07:48;;;;;;;23.50;14.43;;;;;;;;;;5075464;28;20040;-29
2021/12/09 05:10:20;;;;;;;21.20;14.32;;;;;;;;;;5087526;28;20474;-28
2021/12/09 05:12:46;;;;;;;20.15;13.73;;;;;;;;;;5088150;28;20216;-29
2021/12/09 05:15:12;;;;;;;21.80;13.13;;;;;;;;;;5081185;28;20519;-29
2021/12/09 05:17:38;;;;;;;22.48;14.52;;;;;;;;;;5054298;28;20040;-29
2021/12/09 05:20:07;;;;;;;21.55;14.95;;;;;;;;;;5089134;28;20032;-28
2021/12/09 05:22:33;;;;;;;29.60;16.05;;;;;;;;;;5084356;28;20048;-28
2021/12/09 05:24:59;;;;;;;20.02;13.98;;;;;;;;;;5079849;28;20165;-29
2021/12/09 05:27:25;;;;;;;24.55;15.40;;;;;;;;;;5054001;28;20040;-27
2021/12/09 05:30:03;;;;;;;27.92;17.50;;;;;;;;;;5081564;28;20080;-29
2021/12/09 05:32:30;;;;;;;26.23;16.58;;;;;;;;;;5067558;28;20424;-29
2021/12/09 05:34:57;;;;;;;27.42;17.05;;;;;;;;;;5052187;28;20040;-29
2021/12/09 05:37:24;;;;;;;32.25;19.27;;;;;;;;;;5057420;28;20041;-28
2021/12/09 05:39:54;;;;;;;29.50;18.38;;;;;;;;;;5058483;28;20056;-29
2021/12/09 05:42:24;;;;;;;28.23;17.42;;;;;;;;;;5064290;28;20095;-32
2021/12/09 05:44:50;;;;;;;29.85;18.60;;;;;;;;;;5086619;22;20277;-28
2021/12/09 05:47:19;;;;;;;32.63;18.45;;;;;;;;;;5109514;28;20491;-29
2021/12/09 05:49:46;;;;;;;32.10;18.48;;;;;;;;;;5112820;28;20397;-28
2021/12/09 05:52:13;;;;;;;33.97;19.00;;;;;;;;;;5112297;28;20564;-28
2021/12/09 05:54:39;;;;;;;32.55;19.52;;;;;;;;;;5112595;28;20043;-29
2021/12/09 05:57:05;;;;;;;27.63;18.33;;;;;;;;;;5113643;28;20556;-29
2021/12/09 05:59:32;;;;;;;27.77;17.40;;;;;;;;;;5113354;28;20046;-28
2021/12/09 06:01:59;;;;;;;30.10;16.70;;;;;;;;;;5113403;28;20381;-29
2021/12/09 06:04:25;;;;;;;27.35;16.98;;;;;;;;;;5112961;28;20041;-28
2021/12/09 06:06:52;;;;;;;29.45;17.58;;;;;;;;;;5112681;28;20043;-28
2021/12/09 06:09:19;;;;;;;29.27;18.83;;;;;;;;;;5120100;27;20130;-29
2021/12/09 06:11:51;;;;;;;29.27;18.60;;;;;;;;;;5112369;28;20088;-29
2021/12/09 06:14:17;;;;;;;30.33;18.45;;;;;;;;;;5112183;28;20115;-30
2021/12/09 06:16:45;;;;;;;27.88;17.52;;;;;;;;;;5116440;27;20043;-30
2021/12/09 06:19:11;;;;;;;34.05;18.30;;;;;;;;;;5095853;28;20051;-30
2021/12/09 06:21:37;;;;;;;29.35;19.38;;;;;;;;;;5119822;27;20039;-30
2021/12/09 06:24:03;;;;;;;31.77;22.00;;;;;;;;;;5114210;27;20036;-30
2021/12/09 06:26:31;;;;;;;28.30;19.63;;;;;;;;;;5119916;27;20043;-30
2021/12/09 06:29:00;;;;;;;32.05;18.88;;;;;;;;;;5116780;27;20042;-30
2021/12/09 06:31:29;;;;;;;30.08;18.15;;;;;;;;;;5110473;28;20115;-29
2021/12/09 06:34:00;;;;;;;30.65;18.13;;;;;;;;;;5123582;27;20158;-28
2021/12/09 06:36:28;;;;;;;27.40;17.33;;;;;;;;;;5109196;28;20043;-29
2021/12/09 06:39:00;;;;;;;28.20;17.88;;;;;;;;;;5109168;28;20036;-29
2021/12/09 06:41:29;;;;;;;24.88;17.30;;;;;;;;;;5110526;28;20163;-31
2021/12/09 06:43:56;;;;;;;26.77;17.58;;;;;;;;;;5109931;28;20502;-29
2021/12/09 06:46:22;;;;;;;33.67;20.25;;;;;;;;;;5107708;28;20039;-30
2021/12/09 06:48:51;;;;;;;30.77;19.80;;;;;;;;;;5090176;28;20092;-32
2021/12/09 06:51:35;;;;;;;27.23;17.08;;;;;;;;;;5109039;28;20537;-30
2021/12/09 06:54:14;;;;;;;30.63;18.02;;;;;;;;;;5090983;28;20047;-30
2021/12/09 06:56:44;;;;;;;34.30;19.60;;;;;;;;;;5091328;28;20060;-30
2021/12/09 06:59:13;;;;;;;30.20;18.10;;;;;;;;;;5111035;28;20488;-29
2021/12/09 07:01:42;;;;;;;29.67;17.48;;;;;;;;;;5111300;28;20028;-31
2021/12/09 07:04:08;;;;;;;26.65;17.95;;;;;;;;;;5093867;28;20035;-30
2021/12/09 07:06:35;;;;;;;29.70;17.95;;;;;;;;;;5112658;28;20430;-29
2021/12/09 07:09:03;;;;;;;36.75;18.33;;;;;;;;;;5112496;28;20043;-31
2021/12/09 07:11:31;;;;;;;25.60;17.50;;;;;;;;;;5110456;28;20043;-34
2021/12/09 07:13:57;;;;;;;28.65;18.50;;;;;;;;;;5111776;28;20119;-34
2021/12/09 07:16:23;;;;;;;31.23;18.83;;;;;;;;;;5112093;28;20096;-33
2021/12/09 07:18:50;;;;;;;35.47;19.33;;;;;;;;;;5111660;28;20036;-34
2021/12/09 07:21:16;;;;;;;35.00;19.98;;;;;;;;;;5112149;28;20043;-34
2021/12/09 07:23:42;;;;;;;33.60;19.35;;;;;;;;;;5092878;28;20123;-32
2021/12/09 07:26:11;;;;;;;22.58;16.65;;;;;;;;;;5093150;28;20096;-31
2021/12/09 07:28:42;;;;;;;29.70;17.35;;;;;;;;;;5111101;28;20118;-32
2021/12/09 07:31:08;;;;;;;26.88;16.92;;;;;;;;;;5111566;28;20042;-31
2021/12/09 07:33:34;;;;;;;27.45;16.25;;;;;;;;;;5111918;28;20322;-33
2021/12/09 07:36:00;;;;;;;26.30;16.85;;;;;;;;;;5111498;28;20051;-33
2021/12/09 07:38:28;;;;;;;28.45;16.00;;;;;;;;;;5111545;28;20036;-34
2021/12/09 07:40:54;;;;;;;23.85;15.50;;;;;;;;;;5111387;28;20035;-32
2021/12/09 07:43:20;;;;;;;26.77;16.20;;;;;;;;;;5111491;28;20050;-33
2021/12/09 07:45:46;;;;;;;26.58;17.38;;;;;;;;;;5110027;28;20173;-32
2021/12/09 07:48:13;;;;;;;25.08;16.73;;;;;;;;;;5111390;28;20103;-32
2021/12/09 07:50:46;;;;;;;32.53;17.45;;;;;;;;;;5110622;28;20384;-32
2021/12/09 07:53:17;;;;;;;23.85;16.52;;;;;;;;;;5110210;28;20047;-33
2021/12/09 07:55:43;;;;;;;31.85;16.08;;;;;;;;;;5110641;28;20047;-33
2021/12/09 07:58:09;;;;;;;28.17;17.70;;;;;;;;;;5110644;28;20054;-34
2021/12/09 08:00:36;;;;;;;30.02;21.88;;;;;;;;;;5111123;28;20042;-33
2021/12/09 08:03:09;;;;;;;38.58;23.27;;;;;;;;;;5110249;28;20066;-32
2021/12/09 08:05:37;;;;;;;38.60;24.63;;;;;;;;;;5110667;28;20043;-32
2021/12/09 08:08:07;;;;;;;30.05;21.35;;;;;;;;;;5110301;28;20031;-33
2021/12/09 08:10:34;;;;;;;34.60;24.17;;;;;;;;;;5106906;27;20087;-33
2021/12/09 08:13:00;;;;;;;28.00;19.75;;;;;;;;;;5110768;27;20035;-33
2021/12/09 08:15:28;;;;;;;27.52;17.67;;;;;;;;;;5110865;27;20044;-33
2021/12/09 08:18:01;;;;;;;27.88;18.92;;;;;;;;;;5108317;28;20053;-33
2021/12/09 08:20:32;;;;;;;28.48;19.08;;;;;;;;;;5116703;27;20562;-32
2021/12/09 08:23:01;;;;;;;29.75;18.75;;;;;;;;;;5109668;28;20035;-34
2021/12/09 08:25:27;;;;;;;25.67;17.52;;;;;;;;;;5110464;28;20411;-33
2021/12/09 08:27:53;;;;;;;25.45;18.27;;;;;;;;;;5111248;28;20036;-32
2021/12/09 08:30:21;;;;;;;31.25;19.40;;;;;;;;;;5110132;28;20469;-32
2021/12/09 08:32:47;;;;;;;26.05;16.45;;;;;;;;;;5110654;28;20156;-31
2021/12/09 08:35:22;;;;;;;26.48;16.77;;;;;;;;;;5110051;28;20114;-28
2021/12/09 08:37:49;;;;;;;22.63;15.98;;;;;;;;;;5110320;28;20040;-29
2021/12/09 08:40:16;;;;;;;25.38;14.75;;;;;;;;;;5110207;28;20531;-29
2021/12/09 08:42:42;;;;;;;27.95;16.10;;;;;;;;;;5111388;28;20047;-27
2021/12/09 08:45:10;;;;;;;28.02;16.88;;;;;;;;;;5111504;28;20042;-32
2021/12/09 08:47:37;;;;;;;21.35;16.17;;;;;;;;;;5102535;28;20027;-31
2021/12/09 08:50:03;;;;;;;20.85;16.70;;;;;;;;;;5110251;28;20047;-31
2021/12/09 08:52:29;;;;;;;26.70;18.00;;;;;;;;;;5109569;28;20419;-32
2021/12/09 08:54:55;;;;;;;26.13;15.75;;;;;;;;;;5110064;28;20036;-32
2021/12/09 08:57:22;;;;;;;22.20;14.75;;;;;;;;;;5109810;28;20027;-32
2021/12/09 08:59:48;;;;;;;20.15;14.23;;;;;;;;;;5110039;28;20504;-32
2021/12/09 09:02:15;;;;;;;22.10;13.65;;;;;;;;;;5107652;28;20047;-31
2021/12/09 09:04:41;;;;;;;22.80;13.57;;;;;;;;;;5107743;28;20040;-29
2021/12/09 09:07:08;;;;;;;21.00;13.43;;;;;;;;;;5109755;28;20439;-32
2021/12/09 09:09:35;;;;;;;18.45;13.65;;;;;;;;;;5110166;28;20084;-31
2021/12/09 09:12:08;;;;;;;20.25;11.18;;;;;;;;;;5109141;28;20456;-31
2021/12/09 09:14:34;;;;;;;19.27;12.43;;;;;;;;;;5108549;28;20488;-31
2021/12/09 09:17:01;;;;;;;18.98;11.88;;;;;;;;;;5109362;28;20369;-31
2021/12/09 09:19:27;;;;;;;19.58;11.85;;;;;;;;;;5109104;28;20040;-33
2021/12/09 09:21:53;;;;;;;19.85;12.48;;;;;;;;;;5110974;28;20036;-32
2021/12/09 09:24:20;;;;;;;16.38;11.38;;;;;;;;;;5106576;28;20052;-32
2021/12/09 09:26:46;;;;;;;17.05;10.07;;;;;;;;;;5105764;28;20503;-32
2021/12/09 09:29:12;;;;;;;16.02;9.63;;;;;;;;;;5115188;27;20084;-31
2021/12/09 09:31:40;;;;;;;14.48;9.07;;;;;;;;;;5113969;28;20063;-32
2021/12/09 09:34:07;;;;;;;12.98;8.82;;;;;;;;;;5113670;28;20045;-32
2021/12/09 09:36:34;;;;;;;11.73;8.80;;;;;;;;;;5114135;28;20066;-35
2021/12/09 09:39:11;;;;;;;13.30;8.15;;;;;;;;;;5112991;28;20036;-33
2021/12/09 09:41:37;;;;;;;11.90;7.43;;;;;;;;;;5112157;28;20079;-31
2021/12/09 09:44:15;;;;;;;12.98;7.63;;;;;;;;;;5117096;27;20053;-33
2021/12/09 09:46:44;;;;;;;8.95;6.43;;;;;;;;;;5114484;27;20075;-31
2021/12/09 09:49:11;;;;;;;12.95;7.50;;;;;;;;;;5112693;27;20407;-33
2021/12/09 09:51:39;;;;;;;9.93;6.38;;;;;;;;;;5111400;27;20454;-32
2021/12/09 09:54:09;;;;;;;8.60;6.47;;;;;;;;;;5118902;27;20043;-32
2021/12/09 09:56:40;;;;;;;8.93;7.18;;;;;;;;;;5120769;27;20108;-34
2021/12/09 09:59:07;;;;;;;10.27;6.50;;;;;;;;;;5113181;28;20064;-33
2021/12/09 10:01:34;;;;;;;8.57;6.50;;;;;;;;;;5112467;28;20032;-33
2021/12/09 10:04:13;;;;;;;8.98;6.90;;;;;;;;;;5112024;28;20032;-33
2021/12/09 10:06:47;;;;;;;9.75;6.35;;;;;;;;;;5110906;28;20043;-33
2021/12/09 10:09:16;;;;;;;10.15;6.47;;;;;;;;;;5110358;27;20089;-32
2021/12/09 10:11:45;;;;;;;9.57;6.20;;;;;;;;;;5112941;27;20039;-35
2021/12/09 10:14:17;;;;;;;9.52;5.68;;;;;;;;;;5094629;28;20106;-32
2021/12/09 10:16:45;;;;;;;10.18;5.43;;;;;;;;;;5112032;28;20171;-32
2021/12/09 10:19:22;;;;;;;6.82;5.80;;;;;;;;;;5112165;28;20465;-32
2021/12/09 10:22:13;;;;;;;9.43;6.20;;;;;;;;;;5110785;28;20097;-32
2021/12/09 10:24:40;;;;;;;12.90;6.55;;;;;;;;;;5110562;28;20053;-33
2021/12/09 10:27:07;;;;;;;8.93;5.95;;;;;;;;;;5110527;28;20074;-32
2021/12/09 10:29:40;;;;;;;12.07;6.45;;;;;;;;;;5088683;28;20117;-33
2021/12/09 10:32:09;;;;;;;8.95;6.28;;;;;;;;;;5106784;28;20071;-32
2021/12/09 10:34:43;;;;;;;9.10;6.18;;;;;;;;;;5089093;28;20046;-32
2021/12/09 10:37:09;;;;;;;9.32;6.93;;;;;;;;;;5108000;28;20126;-32
2021/12/09 10:39:37;;;;;;;11.10;6.28;;;;;;;;;;5110592;28;20035;-33
2021/12/09 10:42:05;;;;;;;9.05;5.93;;;;;;;;;;5111235;28;20565;-32
2021/12/09 10:44:36;;;;;;;13.80;6.57;;;;;;;;;;5092683;28;20106;-32
2021/12/09 10:47:10;;;;;;;12.38;6.90;;;;;;;;;;5112112;28;20047;-30
2021/12/09 10:49:51;;;;;;;9.23;6.47;;;;;;;;;;5104336;28;20035;-29
2021/12/09 10:52:41;;;;;;;11.80;7.13;;;;;;;;;;5111371;28;20500;-32
2021/12/09 10:55:21;;;;;;;10.90;7.72;;;;;;;;;;5106928;28;20039;-32
2021/12/09 10:57:56;;;;;;;11.93;7.20;;;;;;;;;;5111795;28;20032;-33
2021/12/09 11:00:24;;;;;;;13.80;8.48;;;;;;;;;;5110786;28;20050;-34
2021/12/09 11:03:01;;;;;;;11.25;7.57;;;;;;;;;;5103142;28;20036;-31
2021/12/09 11:05:30;;;;;;;12.18;7.65;;;;;;;;;;5110400;28;20050;-32
2021/12/09 11:08:11;;;;;;;13.40;8.10;;;;;;;;;;5110611;28;20107;-32
2021/12/09 11:10:45;;;;;;;15.00;7.97;;;;;;;;;;5109980;28;20036;-32
2021/12/09 11:13:11;;;;;;;;;;;;;;;;;;5092602;28;20096;-34
2021/12/09 11:15:46;;;;;;;16.88;9.20;;;;;;;;;;5109477;28;19920;-32
2021/12/09 11:18:26;;;;;;;14.35;8.25;;;;;;;;;;5110534;28;20495;-33
2021/12/09 11:20:52;;;;;;;14.15;8.25;;;;;;;;;;5110274;28;20511;-33
2021/12/09 11:23:36;;;;;;;14.60;8.70;;;;;;;;;;5109999;28;20100;-32
2021/12/09 11:26:25;;;;;;;14.50;8.93;;;;;;;;;;5110042;28;20480;-32
2021/12/09 11:28:54;;;;;;;12.25;8.20;;;;;;;;;;5110492;28;20503;-32
2021/12/09 11:31:23;;;;;;;12.48;8.38;;;;;;;;;;5109882;28;20058;-36
2021/12/09 11:33:55;;;;;;;13.57;9.82;;;;;;;;;;5109945;28;20043;-32
2021/12/09 11:36:39;;;;;;;13.63;9.38;;;;;;;;;;5109996;28;20038;-35
2021/12/09 11:39:12;;;;;;;11.35;9.07;;;;;;;;;;5108031;27;20043;-32
2021/12/09 11:41:40;;;;;;;12.70;8.63;;;;;;;;;;5107008;27;20052;-31
2021/12/09 11:44:08;;;;;;;16.20;10.57;;;;;;;;;;5104735;28;20134;-33
2021/12/09 11:46:34;;;;;;;16.85;9.50;;;;;;;;;;5111713;27;20039;-32
2021/12/09 11:49:00;;;;;;;12.65;9.73;;;;;;;;;;5110011;28;20094;-31
2021/12/09 11:51:29;;;;;;;12.55;9.77;;;;;;;;;;5108727;28;20522;-32
2021/12/09 11:53:59;;;;;;;14.15;10.20;;;;;;;;;;5110474;28;20126;-36
2021/12/09 12:15:48;;;;;;;18.60;10.10;;;;;;;;;;5109358;28;20378;-32
2021/12/09 12:21:17;;;;;;;20.65;10.82;;;;;;;;;;5109736;28;20044;-33
2021/12/09 12:35:00;;;;;;;16.73;10.95;;;;;;;;;;5108141;28;20043;-32
2021/12/09 12:37:50;;;;;;;18.23;11.07;;;;;;;;;;5109659;28;20047;-31
2021/12/09 12:40:18;;;;;;;18.85;11.18;;;;;;;;;;5111192;28;20393;-31
2021/12/09 12:43:02;;;;;;;17.33;10.35;;;;;;;;;;5113029;28;20403;-31
2021/12/09 12:48:31;;;;;;;16.90;11.15;;;;;;;;;;5116039;28;20044;-31
2021/12/09 12:51:09;;;;;;;18.35;11.38;;;;;;;;;;5116632;28;20195;-32
2021/12/09 12:53:40;;;;;;;18.90;11.55;;;;;;;;;;5103123;28;20492;-31
2021/12/09 12:56:18;;;;;;;19.35;12.07;;;;;;;;;;5095142;28;20118;-31
2021/12/09 12:59:12;;;;;;;21.75;11.90;;;;;;;;;;5109686;28;20047;-34
2021/12/09 13:01:43;;;;;;;21.52;12.85;;;;;;;;;;5110212;28;20048;-32
2021/12/09 13:04:26;;;;;;;25.40;13.32;;;;;;;;;;5094529;28;20512;-31
2021/12/09 13:06:58;;;;;;;25.02;13.57;;;;;;;;;;5114930;28;20502;-35
2021/12/09 13:12:00;;;;;;;23.00;13.05;;;;;;;;;;5095501;28;20484;-32
2021/12/09 13:14:31;;;;;;;21.63;14.05;;;;;;;;;;5113621;28;20514;-33
2021/12/09 13:17:09;;;;;;;21.15;12.60;;;;;;;;;;5111999;27;20596;-33
2021/12/09 13:19:51;;;;;;;17.33;12.40;;;;;;;;;;5119205;27;20074;-33
2021/12/09 13:22:19;;;;;;;23.88;12.98;;;;;;;;;;5112207;28;20035;-32
2021/12/09 13:32:54;;;;;;;19.48;12.63;;;;;;;;;;5112665;28;20496;-32
2021/12/09 13:35:39;;;;;;;21.27;12.82;;;;;;;;;;5111995;28;20073;-32
2021/12/09 13:38:19;;;;;;;20.08;12.65;;;;;;;;;;5112534;28;20115;-32
2021/12/09 13:46:31;;;;;;;19.92;13.00;;;;;;;;;;5108813;28;20040;-34
2021/12/09 13:49:18;;;;;;;21.23;13.40;;;;;;;;;;5110020;28;20093;-34
2021/12/09 13:56:46;;;;;;;20.33;14.50;;;;;;;;;;5112140;28;20059;-33
2021/12/09 13:59:16;;;;;;;27.98;14.30;;;;;;;;;;5113289;28;20126;-31
2021/12/09 14:01:42;;;;;;;22.15;13.52;;;;;;;;;;5111853;28;20039;-30
2021/12/09 14:04:08;;;;;;;17.55;10.73;;;;;;;;;;5094756;28;20094;-31
2021/12/09 14:06:35;;;;;;;17.40;11.75;;;;;;;;;;5112838;28;20477;-30
2021/12/09 14:09:01;;;;;;;21.02;12.13;;;;;;;;;;5113683;27;20179;-31
2021/12/09 14:11:34;;;;;;;24.90;12.57;;;;;;;;;;5111367;28;20069;-31
2021/12/09 14:14:12;;;;;;;22.03;13.03;;;;;;;;;;5110862;28;20040;-32
2021/12/09 14:16:53;;;;;;;24.27;14.18;;;;;;;;;;5111826;28;20123;-31
2021/12/09 14:22:28;;;;;;;20.27;13.80;;;;;;;;;;5107604;28;20126;-30
2021/12/09 14:24:54;;;;;;;23.85;13.68;;;;;;;;;;5110256;28;20038;-32
2021/12/09 14:27:21;;;;;;;17.48;12.93;;;;;;;;;;5109217;28;20489;-31
2021/12/09 14:29:51;;;;;;;19.80;13.75;;;;;;;;;;5110190;28;20126;-33
2021/12/09 14:32:18;;;;;;;23.20;13.80;;;;;;;;;;5111967;27;20040;-31
2021/12/09 14:34:48;;;;;;;21.98;13.82;;;;;;;;;;5115106;27;20393;-31
2021/12/09 14:37:15;;;;;;;21.33;14.48;;;;;;;;;;5111232;28;20036;-33
2021/12/09 14:39:42;;;;;;;19.85;12.85;;;;;;;;;;5111038;28;20032;-31
2021/12/09 14:42:10;;;;;;;18.67;13.23;;;;;;;;;;5092686;28;20118;-30
2021/12/09 14:44:37;;;;;;;20.73;13.43;;;;;;;;;;5091672;28;20035;-31
2021/12/09 14:47:11;;;;;;;21.02;15.57;;;;;;;;;;5110034;28;20046;-31
2021/12/09 14:49:42;;;;;;;21.13;13.48;;;;;;;;;;5110747;28;20031;-31
2021/12/09 14:52:09;;;;;;;20.48;14.85;;;;;;;;;;5109881;28;20132;-31
2021/12/09 14:54:35;;;;;;;19.92;13.15;;;;;;;;;;5110496;28;20036;-31
2021/12/09 14:57:06;;;;;;;19.48;13.35;;;;;;;;;;5110289;28;20473;-32
2021/12/09 14:59:35;;;;;;;21.83;13.38;;;;;;;;;;5110392;28;20081;-31
2021/12/09 15:02:08;;;;;;;20.73;13.57;;;;;;;;;;5109991;28;20039;-32
2021/12/09 15:04:41;;;;;;;20.83;12.77;;;;;;;;;;5110948;28;20043;-32
2021/12/09 15:07:08;;;;;;;;;;;;;;;;;;5112952;27;20048;-32
2021/12/09 15:09:34;;;;;;;19.92;12.20;;;;;;;;;;5118013;27;20014;-33
2021/12/09 15:12:01;;;;;;;19.83;12.63;;;;;;;;;;5111662;28;20487;-33
2021/12/09 15:14:31;;;;;;;19.95;12.75;;;;;;;;;;5110621;28;20092;-36
2021/12/09 15:17:12;;;;;;;20.27;13.15;;;;;;;;;;5111391;28;20051;-33
2021/12/09 15:19:40;;;;;;;17.95;12.45;;;;;;;;;;5104428;28;20041;-32
2021/12/09 15:22:09;;;;;;;21.75;12.40;;;;;;;;;;5111635;28;20044;-37
2021/12/09 15:24:35;;;;;;;18.40;12.57;;;;;;;;;;5102640;28;20039;-33
2021/12/09 15:27:01;;;;;;;20.02;12.25;;;;;;;;;;5110652;28;20050;-34
2021/12/09 15:29:27;;;;;;;21.38;11.95;;;;;;;;;;5111998;28;20082;-35
2021/12/09 15:32:09;;;;;;;21.00;12.77;;;;;;;;;;5092710;28;20043;-36
2021/12/09 15:34:39;;;;;;;20.83;13.95;;;;;;;;;;5110385;27;20037;-32
2021/12/09 15:37:07;;;;;;;22.65;14.95;;;;;;;;;;5108099;28;20084;-32